Time;durP1;ratioP1;P1;durP2;ratioP2;P2;SDS_P1;SDS_P2;PMS_P1;PMS_P2;Temp;Humidity;BMP_temperature;BMP_pressure;BME280_temperature;BME280_humidity;BME280_pressure;Samples;Min_cycle;Max_cycle;Signal;HPM_P1;HPM_P2
2021/10/14 00:01:36;;;;;;;4.03;2.97;;;28.60;89.00;;;;;;5103988;28;20039;-50
2021/10/14 00:04:03;;;;;;;8.35;3.35;;;28.60;88.90;;;;;;5104593;28;20032;-46
2021/10/14 00:06:29;;;;;;;4.03;3.00;;;28.60;88.80;;;;;;5104374;28;20023;-47
2021/10/14 00:08:56;;;;;;;4.45;2.63;;;28.50;88.60;;;;;;5104236;28;20055;-43
2021/10/14 00:11:24;;;;;;;2.97;2.40;;;28.50;88.60;;;;;;5103980;28;20042;-43
2021/10/14 00:13:51;;;;;;;5.40;2.30;;;28.50;88.40;;;;;;5104526;28;20327;-50
2021/10/14 00:16:17;;;;;;;4.05;2.35;;;28.50;88.40;;;;;;5103801;28;20031;-45
2021/10/14 00:18:44;;;;;;;3.40;2.38;;;28.50;88.40;;;;;;5104229;28;20324;-47
2021/10/14 00:21:11;;;;;;;3.08;2.20;;;28.50;88.40;;;;;;5102783;28;20093;-49
2021/10/14 00:23:37;;;;;;;2.88;2.28;;;28.50;88.20;;;;;;5104155;28;20031;-48
2021/10/14 00:26:05;;;;;;;4.35;2.28;;;28.50;88.00;;;;;;5103879;28;20023;-45
2021/10/14 00:28:31;;;;;;;2.55;2.05;;;28.50;87.90;;;;;;5104097;28;20208;-45
2021/10/14 00:30:58;;;;;;;2.95;2.13;;;28.50;88.00;;;;;;5103795;28;20047;-46
2021/10/14 00:33:25;;;;;;;2.53;2.05;;;28.50;87.60;;;;;;5104052;28;20024;-51
2021/10/14 00:35:51;;;;;;;3.35;2.60;;;28.50;87.80;;;;;;5102731;28;20091;-55
2021/10/14 00:38:18;;;;;;;2.55;2.20;;;28.50;87.90;;;;;;5103869;28;20044;-51
2021/10/14 00:40:46;;;;;;;6.35;2.25;;;28.50;88.00;;;;;;5103922;28;20034;-50
2021/10/14 00:43:12;;;;;;;4.28;2.50;;;28.50;87.90;;;;;;5102966;28;20062;-49
2021/10/14 00:45:39;;;;;;;4.28;2.47;;;28.60;88.00;;;;;;5103547;28;20028;-51
2021/10/14 00:48:06;;;;;;;4.68;2.80;;;28.60;87.90;;;;;;5103612;28;20323;-55
2021/10/14 00:50:33;;;;;;;4.10;2.50;;;28.50;87.80;;;;;;5103648;28;20043;-50
2021/10/14 00:53:00;;;;;;;3.00;2.42;;;28.60;87.90;;;;;;5103709;28;20016;-50
2021/10/14 00:55:27;;;;;;;3.35;2.60;;;28.50;87.90;;;;;;5103448;28;20028;-45
2021/10/14 00:57:54;;;;;;;2.83;2.20;;;28.60;88.00;;;;;;5103330;28;20058;-49
2021/10/14 01:00:21;;;;;;;4.03;2.30;;;28.60;88.00;;;;;;5103610;28;20342;-50
2021/10/14 01:02:47;;;;;;;4.07;2.25;;;28.50;88.00;;;;;;5102424;28;20070;-51
2021/10/14 01:05:14;;;;;;;4.35;2.70;;;28.50;88.00;;;;;;5103546;28;20020;-53
2021/10/14 01:07:41;;;;;;;3.70;2.25;;;28.50;88.10;;;;;;5103859;28;20308;-46
2021/10/14 01:10:08;;;;;;;4.00;2.20;;;28.50;88.20;;;;;;5103430;28;20024;-50
2021/10/14 01:12:36;;;;;;;4.40;2.10;;;28.50;88.30;;;;;;5101628;28;20029;-56
2021/10/14 01:15:24;;;;;;;3.05;2.17;;;28.50;88.30;;;;;;5102329;28;20312;-51
2021/10/14 01:17:51;;;;;;;3.22;2.08;;;28.50;88.50;;;;;;5103472;28;20048;-52
2021/10/14 01:20:18;;;;;;;3.47;2.28;;;28.50;88.60;;;;;;5103383;28;20019;-43
2021/10/14 01:22:45;;;;;;;4.13;2.10;;;28.50;88.80;;;;;;5103682;28;20024;-49
2021/10/14 01:25:12;;;;;;;3.80;2.25;;;28.50;88.70;;;;;;5103296;28;20166;-49
2021/10/14 01:27:38;;;;;;;5.68;2.35;;;28.50;88.80;;;;;;5105566;28;20032;-51
2021/10/14 01:30:07;;;;;;;4.53;2.70;;;28.50;88.90;;;;;;5106820;28;20016;-49
2021/10/14 01:32:34;;;;;;;6.78;2.40;;;28.50;89.00;;;;;;5107067;28;20312;-49
2021/10/14 01:35:03;;;;;;;3.45;2.22;;;28.50;89.00;;;;;;5106993;28;20024;-50
2021/10/14 01:37:30;;;;;;;6.60;2.40;;;28.40;89.10;;;;;;5106771;28;20053;-50
2021/10/14 01:39:56;;;;;;;5.15;2.50;;;28.40;89.10;;;;;;5106879;28;20016;-46
2021/10/14 01:42:23;;;;;;;11.10;6.50;;;28.40;89.20;;;;;;5106619;28;20303;-51
2021/10/14 01:44:49;;;;;;;11.07;7.75;;;28.40;89.30;;;;;;5106685;28;20141;-49
2021/10/14 01:47:16;;;;;;;13.43;7.82;;;28.40;89.30;;;;;;5106519;28;20019;-51
2021/10/14 01:49:43;;;;;;;12.98;7.25;;;28.40;89.40;;;;;;5106304;28;20350;-42
2021/10/14 01:52:10;;;;;;;12.48;6.72;;;28.40;89.40;;;;;;5106658;28;20083;-51
2021/10/14 01:54:37;;;;;;;9.35;5.45;;;28.40;89.40;;;;;;5106497;28;20243;-56
2021/10/14 01:57:04;;;;;;;10.20;4.57;;;28.40;89.40;;;;;;5105091;28;20110;-47
2021/10/14 01:59:30;;;;;;;6.00;3.83;;;28.40;89.60;;;;;;5105490;28;20023;-51
2021/10/14 02:01:57;;;;;;;8.75;3.83;;;28.40;89.50;;;;;;5105207;28;20087;-53
2021/10/14 02:04:23;;;;;;;8.73;3.33;;;28.40;89.50;;;;;;5106868;28;20028;-46
2021/10/14 02:06:50;;;;;;;4.47;2.80;;;28.40;89.50;;;;;;5105734;28;20023;-51
2021/10/14 02:09:17;;;;;;;6.45;3.13;;;28.40;89.40;;;;;;5105173;28;20032;-51
2021/10/14 02:11:43;;;;;;;5.50;3.17;;;28.40;89.50;;;;;;5106266;28;20079;-48
2021/10/14 02:14:10;;;;;;;8.77;4.60;;;28.40;89.50;;;;;;5106487;28;20020;-52
2021/10/14 02:16:36;;;;;;;11.48;5.82;;;28.30;89.40;;;;;;5106094;28;20020;-49
2021/10/14 02:19:03;;;;;;;14.18;6.65;;;28.40;89.40;;;;;;5106477;28;20035;-49
2021/10/14 02:21:31;;;;;;;14.85;6.57;;;28.40;89.30;;;;;;5105894;28;20083;-52
2021/10/14 02:23:58;;;;;;;10.68;6.35;;;28.40;89.30;;;;;;5106327;28;20028;-50
2021/10/14 02:26:25;;;;;;;8.60;5.68;;;28.30;89.20;;;;;;5105849;28;20033;-45
2021/10/14 02:28:52;;;;;;;10.32;5.38;;;28.30;89.30;;;;;;5106070;28;20043;-47
2021/10/14 02:31:19;;;;;;;8.07;5.03;;;28.30;89.20;;;;;;5105796;28;20022;-49
2021/10/14 02:33:45;;;;;;;6.57;4.00;;;28.30;89.20;;;;;;5106072;28;20016;-44
2021/10/14 02:36:12;;;;;;;6.72;3.83;;;28.30;89.70;;;;;;5105565;28;20016;-47
2021/10/14 02:38:38;;;;;;;5.45;3.38;;;28.30;89.10;;;;;;5104883;28;20059;-50
2021/10/14 02:41:05;;;;;;;5.07;3.30;;;28.30;89.20;;;;;;5105549;28;20035;-48
2021/10/14 02:43:32;;;;;;;5.40;3.10;;;28.30;89.20;;;;;;5105674;28;20020;-51
2021/10/14 02:45:58;;;;;;;6.50;2.58;;;28.20;89.10;;;;;;5105647;28;20359;-51
2021/10/14 02:48:25;;;;;;;5.43;2.75;;;28.20;89.20;;;;;;5105607;28;20027;-50
2021/10/14 02:50:52;;;;;;;4.57;2.30;;;28.20;89.30;;;;;;5105377;28;20016;-52
2021/10/14 02:53:19;;;;;;;8.45;2.10;;;28.20;89.20;;;;;;5105626;28;20020;-53
2021/10/14 02:55:46;;;;;;;4.68;2.30;;;28.20;89.20;;;;;;5105347;28;20069;-52
2021/10/14 02:58:12;;;;;;;5.80;3.28;;;28.20;89.30;;;;;;5105226;28;20051;-49
2021/10/14 03:00:39;;;;;;;5.82;3.80;;;28.20;89.40;;;;;;5105238;28;20178;-50
2021/10/14 03:03:06;;;;;;;7.05;3.97;;;28.20;89.50;;;;;;5105526;28;20024;-48
2021/10/14 03:05:32;;;;;;;7.15;3.58;;;28.20;89.50;;;;;;5105102;28;20027;-48
2021/10/14 03:07:59;;;;;;;4.45;3.22;;;28.20;89.50;;;;;;5104990;28;20236;-55
2021/10/14 03:10:26;;;;;;;5.30;2.80;;;28.20;89.50;;;;;;5105013;28;20038;-55
2021/10/14 03:12:52;;;;;;;9.52;3.28;;;28.10;89.40;;;;;;5105047;28;20063;-47
2021/10/14 03:15:19;;;;;;;7.43;3.25;;;28.10;89.40;;;;;;5104866;28;20008;-51
2021/10/14 03:17:45;;;;;;;7.43;3.25;;;28.10;89.40;;;;;;5105036;28;20334;-44
2021/10/14 03:20:12;;;;;;;7.07;2.80;;;28.10;89.30;;;;;;5104917;28;20049;-48
2021/10/14 03:22:39;;;;;;;5.85;2.83;;;28.10;89.30;;;;;;5104801;28;20124;-49
2021/10/14 03:25:07;;;;;;;3.45;2.17;;;28.20;89.20;;;;;;5104713;28;20051;-47
2021/10/14 03:27:33;;;;;;;2.55;2.20;;;28.10;89.20;;;;;;5104618;28;20220;-46
2021/10/14 03:30:00;;;;;;;2.92;1.92;;;28.10;89.30;;;;;;5104515;28;20243;-45
2021/10/14 03:32:27;;;;;;;5.35;1.80;;;28.10;89.30;;;;;;5104688;28;20077;-48
2021/10/14 03:34:53;;;;;;;5.00;1.67;;;28.10;89.20;;;;;;5104768;28;20024;-45
2021/10/14 03:37:20;;;;;;;3.22;1.48;;;28.10;89.20;;;;;;5104468;28;20020;-47
2021/10/14 03:39:47;;;;;;;2.40;1.45;;;28.10;89.60;;;;;;5104463;28;20205;-51
2021/10/14 03:42:14;;;;;;;5.38;1.65;;;28.10;89.10;;;;;;5104501;28;20008;-49
2021/10/14 03:44:40;;;;;;;6.55;1.88;;;28.10;89.20;;;;;;5104694;28;20043;-53
2021/10/14 03:47:07;;;;;;;5.50;1.42;;;28.10;89.80;;;;;;5104547;28;20038;-43
2021/10/14 03:49:34;;;;;;;4.82;1.77;;;28.10;89.30;;;;;;5104190;28;20043;-47
2021/10/14 03:52:00;;;;;;;2.55;1.52;;;28.10;89.20;;;;;;5104231;28;20020;-44
2021/10/14 03:54:27;;;;;;;4.88;1.45;;;28.10;89.30;;;;;;5104874;28;20043;-45
2021/10/14 03:56:53;;;;;;;3.72;1.63;;;28.00;89.20;;;;;;5103075;28;20066;-44
2021/10/14 03:59:20;;;;;;;7.45;1.85;;;28.00;89.30;;;;;;5104653;28;20205;-44
2021/10/14 04:01:47;;;;;;;2.97;1.40;;;28.00;89.30;;;;;;5104301;28;20020;-45
2021/10/14 04:04:13;;;;;;;3.60;1.90;;;28.00;89.30;;;;;;5104581;28;20066;-49
2021/10/14 04:06:40;;;;;;;4.22;1.65;;;28.00;89.40;;;;;;5104081;28;20020;-49
2021/10/14 04:09:06;;;;;;;5.90;1.67;;;28.00;89.40;;;;;;5104543;28;20043;-48
2021/10/14 04:11:33;;;;;;;3.95;1.80;;;28.00;89.50;;;;;;5104155;28;20016;-48
2021/10/14 04:14:00;;;;;;;4.93;2.03;;;28.00;89.60;;;;;;5103939;28;20032;-50
2021/10/14 04:16:26;;;;;;;1.95;1.70;;;28.00;89.50;;;;;;5104432;28;20317;-51
2021/10/14 04:18:53;;;;;;;4.38;1.70;;;28.00;89.60;;;;;;5104474;28;20181;-47
2021/10/14 04:21:19;;;;;;;6.20;1.65;;;28.00;89.80;;;;;;5104070;28;20304;-46
2021/10/14 04:23:46;;;;;;;4.05;1.65;;;28.00;89.90;;;;;;5104281;28;20032;-50
2021/10/14 04:26:13;;;;;;;3.58;1.80;;;28.00;89.80;;;;;;5103853;28;20064;-47
2021/10/14 04:28:40;;;;;;;1.77;1.40;;;28.00;90.00;;;;;;5104283;28;20242;-47
2021/10/14 04:31:06;;;;;;;6.18;2.13;;;28.00;90.00;;;;;;5103731;28;20035;-52
2021/10/14 04:33:33;;;;;;;4.03;1.63;;;28.00;90.00;;;;;;5104147;28;20031;-46
2021/10/14 04:36:04;;;;;;;4.10;1.90;;;28.00;89.90;;;;;;5103875;28;20026;-50
2021/10/14 04:38:31;;;;;;;6.05;1.55;;;28.00;89.90;;;;;;5104028;28;20463;-45
2021/10/14 04:40:58;;;;;;;4.45;2.00;;;28.00;89.80;;;;;;5103906;28;20062;-43
2021/10/14 04:43:24;;;;;;;4.28;1.60;;;28.00;89.80;;;;;;5104079;28;20099;-51
2021/10/14 04:45:51;;;;;;;6.32;1.75;;;28.00;89.80;;;;;;5103707;28;20030;-51
2021/10/14 04:48:18;;;;;;;4.00;1.50;;;28.00;89.80;;;;;;5103979;28;20024;-47
2021/10/14 04:50:45;;;;;;;2.97;1.85;;;28.00;89.70;;;;;;5103800;28;20328;-54
2021/10/14 04:53:12;;;;;;;3.85;1.50;;;28.00;89.60;;;;;;5103811;28;20024;-47
2021/10/14 04:55:38;;;;;;;3.75;1.55;;;28.00;89.60;;;;;;5103854;28;20012;-45
2021/10/14 04:58:05;;;;;;;2.50;1.58;;;28.00;89.60;;;;;;5103519;28;20044;-44
2021/10/14 05:00:32;;;;;;;7.22;1.80;;;28.00;89.60;;;;;;5103819;28;20355;-46
2021/10/14 05:02:58;;;;;;;3.40;1.88;;;28.00;89.60;;;;;;5107015;28;20069;-47
2021/10/14 05:05:25;;;;;;;3.65;1.60;;;28.00;89.60;;;;;;5107512;28;20027;-53
2021/10/14 05:07:52;;;;;;;4.20;2.15;;;28.00;89.60;;;;;;5107469;28;20027;-51
2021/10/14 05:10:18;;;;;;;6.57;1.80;;;27.90;89.60;;;;;;5107423;28;20246;-44
2021/10/14 05:12:45;;;;;;;5.47;1.70;;;28.00;89.80;;;;;;5107590;28;20316;-47
2021/10/14 05:15:12;;;;;;;2.53;1.77;;;27.90;89.80;;;;;;5107294;28;20016;-44
2021/10/14 05:17:39;;;;;;;5.80;1.42;;;27.90;89.90;;;;;;5107302;28;20039;-44
2021/10/14 05:20:07;;;;;;;3.28;1.80;;;27.90;90.00;;;;;;5107267;28;20027;-46
2021/10/14 05:22:34;;;;;;;6.47;1.90;;;27.90;90.00;;;;;;5107124;28;20031;-45
2021/10/14 05:25:00;;;;;;;5.53;1.42;;;27.90;90.00;;;;;;5107193;28;20012;-49
2021/10/14 05:27:27;;;;;;;5.03;1.63;;;27.90;90.00;;;;;;5107096;28;20020;-41
2021/10/14 05:29:53;;;;;;;8.40;1.90;;;27.90;90.10;;;;;;5107024;28;20122;-50
2021/10/14 05:32:20;;;;;;;4.22;1.60;;;27.90;90.10;;;;;;5107084;28;20080;-47
2021/10/14 05:34:47;;;;;;;3.45;1.45;;;27.90;90.30;;;;;;5107052;28;20016;-42
2021/10/14 05:37:13;;;;;;;3.47;1.63;;;27.90;90.10;;;;;;5106780;28;20012;-44
2021/10/14 05:39:40;;;;;;;7.03;2.08;;;27.90;90.10;;;;;;5107009;28;20016;-44
2021/10/14 05:42:07;;;;;;;4.35;1.63;;;27.90;90.10;;;;;;5106845;28;20008;-43
2021/10/14 05:44:33;;;;;;;3.35;1.63;;;27.90;90.10;;;;;;5106742;28;20048;-52
2021/10/14 05:47:00;;;;;;;3.10;1.65;;;27.90;90.20;;;;;;5106764;28;20027;-44
2021/10/14 05:49:26;;;;;;;2.97;2.05;;;27.90;90.20;;;;;;5107110;28;20056;-43
2021/10/14 05:51:53;;;;;;;3.65;1.90;;;27.90;90.20;;;;;;5106730;28;20079;-48
2021/10/14 05:54:19;;;;;;;3.67;1.92;;;27.90;90.30;;;;;;5107118;28;20320;-59
2021/10/14 05:56:46;;;;;;;6.88;2.10;;;27.90;90.30;;;;;;5106447;28;20071;-41
2021/10/14 05:59:13;;;;;;;6.40;1.80;;;27.90;90.30;;;;;;5106430;28;20077;-47
2021/10/14 06:01:39;;;;;;;4.13;1.85;;;27.80;90.30;;;;;;5106425;28;20049;-43
2021/10/14 06:04:09;;;;;;;3.75;1.90;;;27.80;90.20;;;;;;5106856;28;20039;-47
2021/10/14 06:06:36;;;;;;;6.32;1.70;;;27.80;90.20;;;;;;5106423;28;20027;-42
2021/10/14 06:09:03;;;;;;;5.68;1.95;;;27.80;90.10;;;;;;5106609;28;20024;-45
2021/10/14 06:11:29;;;;;;;4.00;1.63;;;27.80;90.10;;;;;;5106355;28;20065;-44
2021/10/14 06:13:56;;;;;;;5.20;1.88;;;27.80;90.10;;;;;;5106503;28;20020;-45
2021/10/14 06:16:23;;;;;;;5.35;1.58;;;27.80;90.10;;;;;;5106092;28;20020;-46
2021/10/14 06:18:49;;;;;;;4.25;2.00;;;27.80;90.00;;;;;;5106548;28;20015;-45
2021/10/14 06:21:16;;;;;;;3.35;1.40;;;27.80;90.00;;;;;;5106150;28;20027;-43
2021/10/14 06:23:43;;;;;;;4.65;1.70;;;27.80;90.10;;;;;;5106228;28;20020;-44
2021/10/14 06:26:10;;;;;;;3.35;1.77;;;27.70;90.00;;;;;;5105949;28;20024;-52
2021/10/14 06:28:36;;;;;;;2.65;1.52;;;27.70;90.00;;;;;;5106260;28;20020;-43
2021/10/14 06:31:03;;;;;;;2.78;1.50;;;27.80;90.00;;;;;;5105812;28;20089;-47
2021/10/14 06:33:29;;;;;;;3.28;1.45;;;27.70;90.00;;;;;;5106233;28;20047;-46
2021/10/14 06:35:56;;;;;;;5.97;1.80;;;27.70;90.00;;;;;;5105830;28;20027;-43
2021/10/14 06:38:23;;;;;;;6.07;2.05;;;27.70;90.00;;;;;;5105632;28;20024;-45
2021/10/14 06:40:50;;;;;;;3.15;1.73;;;27.70;90.10;;;;;;5105904;28;20031;-44
2021/10/14 06:43:16;;;;;;;4.00;1.67;;;27.70;90.10;;;;;;5105586;28;20020;-48
2021/10/14 06:45:43;;;;;;;7.43;1.90;;;27.70;90.10;;;;;;5105738;28;20037;-45
2021/10/14 06:48:09;;;;;;;5.38;1.80;;;27.70;90.10;;;;;;5105793;28;20038;-45
2021/10/14 06:50:36;;;;;;;3.22;1.70;;;27.70;90.10;;;;;;5105655;28;20020;-45
2021/10/14 06:53:08;;;;;;;5.57;1.58;;;27.70;90.10;;;;;;5105540;28;20016;-44
2021/10/14 06:55:35;;;;;;;3.10;1.40;;;27.70;90.10;;;;;;5105622;28;20060;-52
2021/10/14 06:58:03;;;;;;;5.72;1.83;;;27.70;90.10;;;;;;5105056;28;20267;-46
2021/10/14 07:00:29;;;;;;;3.42;1.77;;;27.70;90.10;;;;;;5105255;28;20023;-46
2021/10/14 07:02:56;;;;;;;3.78;1.60;;;27.70;90.10;;;;;;5105446;28;20366;-46
2021/10/14 07:05:22;;;;;;;3.10;1.50;;;27.70;90.20;;;;;;5105204;28;20221;-43
2021/10/14 07:07:49;;;;;;;7.10;1.75;;;27.70;90.20;;;;;;5105089;28;20024;-44
2021/10/14 07:10:16;;;;;;;6.03;2.03;;;27.60;90.20;;;;;;5105118;28;20083;-45
2021/10/14 07:12:43;;;;;;;4.40;1.50;;;27.60;90.20;;;;;;5105158;28;20028;-41
2021/10/14 07:15:10;;;;;;;3.15;1.40;;;27.60;90.20;;;;;;5104872;28;20313;-51
2021/10/14 07:17:37;;;;;;;5.32;1.60;;;27.70;90.30;;;;;;5105269;28;20245;-52
2021/10/14 07:20:05;;;;;;;4.85;1.67;;;27.60;90.40;;;;;;5105002;28;20024;-46
2021/10/14 07:22:32;;;;;;;3.85;1.40;;;27.60;90.40;;;;;;5104818;28;20032;-45
2021/10/14 07:24:59;;;;;;;5.60;1.83;;;27.60;90.50;;;;;;5104235;28;20095;-46
2021/10/14 07:27:26;;;;;;;4.18;2.00;;;27.60;90.50;;;;;;5104669;28;20096;-45
2021/10/14 07:29:52;;;;;;;3.70;1.88;;;27.60;90.60;;;;;;5104699;28;20061;-50
2021/10/14 07:32:19;;;;;;;2.33;1.85;;;27.60;90.70;;;;;;5104790;28;20023;-48
2021/10/14 07:34:46;;;;;;;4.22;1.70;;;27.60;90.70;;;;;;5104815;28;20019;-47
2021/10/14 07:37:18;;;;;;;5.60;1.98;;;27.60;90.80;;;;;;5104332;28;20054;-42
2021/10/14 07:39:46;;;;;;;4.57;1.90;;;27.60;90.80;;;;;;5104594;28;20020;-42
2021/10/14 07:42:13;;;;;;;3.10;1.67;;;27.60;90.80;;;;;;5104497;28;20099;-45
2021/10/14 07:44:39;;;;;;;3.13;1.73;;;27.60;90.80;;;;;;5104464;28;20012;-47
2021/10/14 07:47:06;;;;;;;6.03;1.80;;;27.50;90.80;;;;;;5104480;28;20012;-47
2021/10/14 07:49:33;;;;;;;1.98;1.40;;;27.60;90.90;;;;;;5104413;28;20039;-45
2021/10/14 07:52:00;;;;;;;4.07;1.90;;;27.50;90.90;;;;;;5104351;28;20084;-45
2021/10/14 07:54:26;;;;;;;4.05;1.80;;;27.60;90.90;;;;;;5104898;28;20245;-46
2021/10/14 07:56:53;;;;;;;7.07;2.30;;;27.50;90.90;;;;;;5104395;28;20381;-42
2021/10/14 07:59:20;;;;;;;2.47;1.52;;;27.50;90.90;;;;;;5104131;28;20023;-52
2021/10/14 08:01:46;;;;;;;4.53;1.88;;;27.50;90.90;;;;;;5104252;28;20087;-45
2021/10/14 08:04:13;;;;;;;6.45;1.90;;;27.50;90.90;;;;;;5104677;28;20074;-44
2021/10/14 08:06:40;;;;;;;4.88;1.90;;;27.50;90.90;;;;;;5104086;28;20069;-47
2021/10/14 08:09:06;;;;;;;5.90;1.77;;;27.50;90.90;;;;;;5104556;28;20028;-43
2021/10/14 08:11:33;;;;;;;3.15;1.73;;;27.50;91.00;;;;;;5104418;28;20227;-42
2021/10/14 08:14:00;;;;;;;6.20;1.95;;;27.50;91.00;;;;;;5104418;28;20095;-42
2021/10/14 08:16:26;;;;;;;3.92;1.88;;;27.40;91.00;;;;;;5104102;28;20075;-42
2021/10/14 08:18:53;;;;;;;2.72;1.70;;;27.50;91.00;;;;;;5104539;28;20095;-44
2021/10/14 08:21:20;;;;;;;6.95;1.83;;;27.50;91.10;;;;;;5104065;28;20024;-52
2021/10/14 08:23:46;;;;;;;7.05;1.85;;;27.50;91.10;;;;;;5104538;28;20077;-50
2021/10/14 08:26:13;;;;;;;6.82;2.00;;;27.50;91.10;;;;;;5103999;28;20079;-42
2021/10/14 08:28:40;;;;;;;6.22;1.95;;;27.40;91.10;;;;;;5104209;28;20311;-43
2021/10/14 08:31:06;;;;;;;3.30;1.77;;;27.40;91.10;;;;;;5103849;28;20032;-41
2021/10/14 08:33:33;;;;;;;3.60;1.90;;;27.40;91.10;;;;;;5104238;28;20020;-44
2021/10/14 08:36:00;;;;;;;6.32;1.95;;;27.40;91.10;;;;;;5104173;28;20024;-41
2021/10/14 08:38:26;;;;;;;2.75;1.60;;;27.40;91.10;;;;;;5108084;28;20069;-45
2021/10/14 08:40:53;;;;;;;5.35;1.88;;;27.40;91.00;;;;;;5108148;28;20020;-45
2021/10/14 08:43:20;;;;;;;3.25;1.65;;;27.40;91.10;;;;;;5108272;28;20024;-43
2021/10/14 08:45:49;;;;;;;6.07;2.17;;;27.40;91.10;;;;;;5107805;28;20028;-44
2021/10/14 08:48:16;;;;;;;7.45;2.35;;;27.30;91.10;;;;;;5107984;28;20028;-43
2021/10/14 08:50:45;;;;;;;3.08;1.70;;;27.30;91.10;;;;;;5107914;28;20312;-42
2021/10/14 08:53:12;;;;;;;4.63;1.73;;;27.30;91.10;;;;;;5107833;28;20048;-46
2021/10/14 08:55:39;;;;;;;5.13;1.83;;;27.30;91.10;;;;;;5107888;28;20079;-43
2021/10/14 08:58:09;;;;;;;5.63;1.95;;;27.30;91.10;;;;;;5107743;28;20331;-48
2021/10/14 09:00:37;;;;;;;5.53;2.00;;;27.30;91.40;;;;;;5107534;28;20055;-48
2021/10/14 09:03:35;;;;;;;4.78;1.83;;;27.30;91.10;;;;;;5107706;28;20103;-42
2021/10/14 09:06:11;;;;;;;5.57;1.55;;;27.30;91.10;;;;;;5092094;28;20208;-44
2021/10/14 09:08:49;;;;;;;2.72;1.85;;;27.30;91.10;;;;;;5107771;28;20235;-42
2021/10/14 09:11:16;;;;;;;7.03;1.90;;;27.30;91.00;;;;;;5107429;28;20012;-43
2021/10/14 09:13:49;;;;;;;6.25;1.98;;;27.30;91.10;;;;;;5107395;28;20039;-43
2021/10/14 09:16:33;;;;;;;4.90;1.85;;;27.30;91.10;;;;;;5107266;28;20008;-43
2021/10/14 09:19:18;;;;;;;2.67;1.88;;;27.30;91.10;;;;;;5107205;28;20032;-42
2021/10/14 09:21:50;;;;;;;5.35;2.22;;;27.30;91.00;;;;;;5107255;28;20129;-47
2021/10/14 09:24:22;;;;;;;;;;;27.30;91.10;;;;;;5108044;28;20024;-43
2021/10/14 09:26:49;;;;;;;5.53;1.80;;;27.20;91.10;;;;;;5107105;28;19900;-42
2021/10/14 09:29:16;;;;;;;4.70;1.90;;;27.20;91.20;;;;;;5107565;28;20036;-45
2021/10/14 09:31:54;;;;;;;5.50;2.10;;;27.20;91.20;;;;;;5107102;28;20079;-43
2021/10/14 09:34:40;;;;;;;3.35;1.80;;;27.20;91.30;;;;;;5107580;28;20074;-47
2021/10/14 09:37:27;;;;;;;5.35;2.08;;;27.20;91.30;;;;;;5106947;28;20023;-52
2021/10/14 09:40:14;;;;;;;6.35;2.35;;;27.20;91.30;;;;;;5107067;28;20024;-44
2021/10/14 09:42:55;;;;;;;5.95;1.85;;;27.20;91.30;;;;;;5106780;28;20087;-43
2021/10/14 09:45:35;;;;;;;11.57;2.53;;;27.20;91.30;;;;;;5106792;28;20089;-44
2021/10/14 09:48:04;;;;;;;3.88;1.80;;;27.20;91.30;;;;;;5106220;28;20032;-45
2021/10/14 09:50:36;;;;;;;5.65;1.98;;;27.20;91.30;;;;;;5106719;28;20016;-43
2021/10/14 09:53:11;;;;;;;5.80;2.30;;;27.10;91.30;;;;;;5106820;28;20043;-47
2021/10/14 09:55:38;;;;;;;4.55;2.45;;;27.10;91.30;;;;;;5106910;28;20427;-43
2021/10/14 09:58:05;;;;;;;6.35;2.05;;;27.20;91.40;;;;;;5106494;28;20067;-50
2021/10/14 10:00:32;;;;;;;5.97;1.80;;;27.10;91.30;;;;;;5106648;28;20020;-52
2021/10/14 10:03:03;;;;;;;4.65;1.80;;;27.20;91.30;;;;;;5106580;28;20050;-52
2021/10/14 10:05:31;;;;;;;4.57;2.00;;;27.10;91.30;;;;;;5106474;28;20024;-48
2021/10/14 10:08:01;;;;;;;5.35;1.80;;;27.10;91.30;;;;;;5106374;28;20035;-49
2021/10/14 10:10:29;;;;;;;4.18;1.90;;;27.10;91.30;;;;;;5106390;28;20023;-50
2021/10/14 10:13:00;;;;;;;7.13;2.35;;;27.10;91.40;;;;;;5106311;28;20093;-52
2021/10/14 10:15:41;;;;;;;4.22;3.13;;;27.10;91.50;;;;;;5106292;28;20018;-47
2021/10/14 10:18:29;;;;;;;7.95;3.95;;;27.10;91.50;;;;;;5106325;28;20087;-51
2021/10/14 10:21:02;;;;;;;11.35;5.03;;;27.10;91.50;;;;;;5106114;28;20028;-48
2021/10/14 10:23:43;;;;;;;6.57;4.50;;;27.00;91.50;;;;;;5106105;28;20027;-50
2021/10/14 10:26:34;;;;;;;8.07;4.80;;;27.00;91.50;;;;;;5106087;28;20023;-45
2021/10/14 10:29:27;;;;;;;7.53;3.90;;;27.00;91.60;;;;;;5106448;28;20039;-48
2021/10/14 10:31:56;;;;;;;7.65;3.50;;;27.00;91.50;;;;;;5105853;28;20023;-51
2021/10/14 10:34:38;;;;;;;20.10;4.13;;;27.00;91.50;;;;;;5106216;28;20023;-50
2021/10/14 10:37:45;;;;;;;14.60;3.70;;;27.00;91.60;;;;;;5105812;28;20040;-52
2021/10/14 10:40:23;;;;;;;10.27;3.58;;;26.90;91.70;;;;;;5106150;28;20337;-51
2021/10/14 10:43:11;;;;;;;18.45;3.70;;;26.90;91.70;;;;;;5105615;28;20024;-48
2021/10/14 10:45:52;;;;;;;17.58;4.45;;;27.00;91.70;;;;;;5105462;28;20087;-49
2021/10/14 10:48:36;;;;;;;12.97;3.50;;;27.00;91.70;;;;;;5105686;28;20040;-51
2021/10/14 10:51:04;;;;;;;9.52;3.20;;;27.00;91.60;;;;;;5105318;28;20352;-51
2021/10/14 10:53:45;;;;;;;14.43;3.50;;;27.00;91.60;;;;;;5105728;28;20073;-46
2021/10/14 10:56:34;;;;;;;14.13;3.63;;;27.00;91.60;;;;;;5105129;28;20065;-52
2021/10/14 10:59:03;;;;;;;20.77;4.00;;;27.10;91.60;;;;;;5105016;28;20041;-55
2021/10/14 11:01:30;;;;;;;17.35;4.43;;;27.00;91.60;;;;;;5105031;28;20016;-47
2021/10/14 11:04:02;;;;;;;17.95;4.65;;;27.00;91.60;;;;;;5105695;28;20050;-48
2021/10/14 11:06:31;;;;;;;19.92;4.43;;;27.10;91.60;;;;;;5105180;28;20066;-51
2021/10/14 11:09:12;;;;;;;24.13;5.65;;;27.00;91.70;;;;;;5105275;28;20109;-49
2021/10/14 11:11:39;;;;;;;24.25;4.78;;;27.10;91.60;;;;;;5105092;28;20079;-44
2021/10/14 11:14:06;;;;;;;33.22;5.15;;;27.10;91.60;;;;;;5105340;28;20048;-51
2021/10/14 11:16:33;;;;;;;27.13;4.82;;;27.10;91.60;;;;;;5105039;28;20028;-50
2021/10/14 11:19:01;;;;;;;26.10;5.05;;;27.10;91.50;;;;;;5104873;28;20296;-51
2021/10/14 11:21:29;;;;;;;20.38;4.30;;;27.10;91.60;;;;;;5104732;28;20028;-48
2021/10/14 11:23:59;;;;;;;12.30;3.88;;;27.10;91.50;;;;;;5105263;28;20032;-47
2021/10/14 11:26:35;;;;;;;13.23;3.55;;;27.10;91.50;;;;;;5104779;28;20130;-51
2021/10/14 11:29:05;;;;;;;14.70;3.55;;;27.20;91.50;;;;;;5105107;28;20048;-51
2021/10/14 11:31:40;;;;;;;17.48;4.10;;;27.20;91.40;;;;;;5104724;28;20304;-44
2021/10/14 11:34:10;;;;;;;8.55;3.80;;;27.30;91.40;;;;;;5105000;28;20308;-45
2021/10/14 11:36:38;;;;;;;12.50;4.13;;;27.30;91.30;;;;;;5104690;28;20095;-46
2021/10/14 11:39:08;;;;;;;22.08;4.15;;;27.50;91.20;;;;;;5105065;28;20300;-47
2021/10/14 11:41:36;;;;;;;45.45;6.82;;;27.50;91.10;;;;;;5104443;28;20050;-49
2021/10/14 11:44:06;;;;;;;28.15;5.80;;;27.50;91.30;;;;;;5105027;28;20034;-52
2021/10/14 11:46:35;;;;;;;53.15;7.40;;;27.60;91.20;;;;;;5104530;28;20216;-49
2021/10/14 11:49:11;;;;;;;34.47;6.07;;;27.60;91.20;;;;;;5104778;28;20085;-47
2021/10/14 11:51:39;;;;;;;66.57;8.93;;;27.60;91.20;;;;;;5104330;28;20012;-53
2021/10/14 11:54:11;;;;;;;50.15;6.70;;;27.60;91.40;;;;;;5104635;28;20062;-51
2021/10/14 11:56:44;;;;;;;41.53;6.40;;;27.60;91.40;;;;;;5104216;28;20036;-55
2021/10/14 11:59:11;;;;;;;33.13;5.78;;;27.70;91.30;;;;;;5104328;28;20034;-53
2021/10/14 12:02:04;;;;;;;33.95;5.90;;;27.70;91.10;;;;;;5104299;28;20067;-50
2021/10/14 12:04:42;;;;;;;;;;;27.70;91.10;;;;;;5095831;28;20351;-47
2021/10/14 12:07:09;;;;;;;39.58;5.78;;;27.70;91.00;;;;;;5104190;28;19912;-48
2021/10/14 12:09:41;;;;;;;27.02;5.78;;;27.80;91.00;;;;;;5104182;28;20024;-49
2021/10/14 12:12:08;;;;;;;31.77;5.37;;;27.80;91.00;;;;;;5103866;28;20074;-50
2021/10/14 12:14:38;;;;;;;37.95;5.07;;;27.80;90.90;;;;;;5104183;28;20028;-50
2021/10/14 12:17:12;;;;;;;38.30;5.53;;;27.90;90.90;;;;;;5104039;28;20023;-50
2021/10/14 12:19:43;;;;;;;31.55;5.55;;;27.90;90.90;;;;;;5104066;28;20224;-46
2021/10/14 12:22:12;;;;;;;30.30;5.00;;;28.00;90.90;;;;;;5103898;28;20027;-45
2021/10/14 12:25:04;;;;;;;24.85;4.57;;;28.00;90.80;;;;;;5103793;28;20028;-55
2021/10/14 12:27:44;;;;;;;21.58;4.15;;;28.00;90.80;;;;;;5103906;28;20020;-51
2021/10/14 12:30:30;;;;;;;26.92;4.25;;;28.10;90.80;;;;;;5103864;28;20020;-48
2021/10/14 12:33:17;;;;;;;31.08;4.65;;;28.10;90.80;;;;;;5103980;28;20069;-51
2021/10/14 12:35:59;;;;;;;23.65;4.05;;;28.10;90.70;;;;;;5103909;28;20016;-51
2021/10/14 12:38:34;;;;;;;41.17;5.30;;;28.20;90.80;;;;;;5103880;28;20378;-42
2021/10/14 12:41:07;;;;;;;36.92;5.38;;;28.20;90.80;;;;;;5104071;28;20032;-46
2021/10/14 12:43:55;;;;;;;32.55;4.65;;;28.20;90.80;;;;;;5103958;28;20024;-47
2021/10/14 12:46:31;;;;;;;34.33;4.97;;;28.20;90.90;;;;;;5103725;28;20316;-49
2021/10/14 12:51:57;;;;;;;25.23;3.97;;;28.30;90.90;;;;;;5088373;28;20021;-49
2021/10/14 12:54:26;;;;;;;24.55;4.30;;;28.30;90.80;;;;;;5104182;28;20020;-52
2021/10/14 12:56:59;;;;;;;21.88;4.78;;;28.30;90.80;;;;;;5103621;28;20392;-52
2021/10/14 12:59:27;;;;;;;24.15;4.53;;;28.30;90.80;;;;;;5103888;28;20032;-51